createdAt,value
2022-07-31T00:00:19.359Z,77.54
2022-07-31T00:02:46.765Z,76.11
2022-07-31T00:05:13.767Z,77.03
2022-07-31T00:07:40.604Z,75.39
2022-07-31T00:10:07.931Z,75.00
2022-07-31T00:12:35.245Z,74.59
2022-07-31T00:15:04.289Z,77.21
2022-07-31T00:17:32.750Z,80.48
2022-07-31T00:19:59.647Z,80.94
2022-07-31T00:22:26.576Z,81.08
2022-07-31T00:24:53.371Z,80.97
2022-07-31T00:27:20.292Z,81.23
2022-07-31T00:29:47.081Z,84.73
2022-07-31T00:32:13.874Z,81.13
2022-07-31T00:34:40.895Z,80.76
2022-07-31T00:37:08.221Z,86.83
2022-07-31T00:39:34.961Z,82.79
2022-07-31T00:42:01.875Z,85.89
2022-07-31T00:44:29.135Z,82.93
2022-07-31T00:46:58.909Z,81.89
2022-07-31T00:49:27.704Z,85.66
2022-07-31T00:52:05.691Z,87.09
2022-07-31T00:54:33.071Z,86.33
2022-07-31T00:57:00.554Z,83.83
2022-07-31T00:59:28.353Z,81.85
2022-07-31T01:01:56.145Z,86.31
2022-07-31T01:04:23.071Z,88.09
2022-07-31T01:06:50.640Z,86.40
2022-07-31T01:09:17.328Z,88.90
2022-07-31T01:12:24.441Z,90.74
2022-07-31T01:14:53.893Z,91.79
2022-07-31T01:17:23.140Z,93.11
2022-07-31T01:19:50.909Z,94.09
2022-07-31T01:22:36.153Z,97.98
2022-07-31T01:25:30.774Z,96.92
2022-07-31T01:28:20.567Z,96.52
2022-07-31T01:31:25.998Z,97.29
2022-07-31T01:34:09.359Z,96.66
2022-07-31T01:36:40.141Z,99.26
2022-07-31T01:39:06.916Z,94.95
2022-07-31T01:41:39.647Z,98.50
2022-07-31T01:44:07.422Z,99.00
2022-07-31T01:46:42.526Z,94.44
2022-07-31T01:49:11.891Z,96.45
2022-07-31T01:51:39.487Z,96.37
2022-07-31T01:54:06.695Z,100.00
2022-07-31T01:56:34.637Z,100.00
2022-07-31T01:59:02.272Z,100.00
2022-07-31T02:01:50.773Z,100.00
2022-07-31T02:04:20.059Z,100.00
2022-07-31T02:06:48.672Z,100.00
2022-07-31T02:09:18.280Z,100.00
2022-07-31T02:11:54.540Z,100.00
2022-07-31T02:14:24.963Z,100.00
2022-07-31T02:16:51.966Z,100.00
2022-07-31T02:19:24.250Z,100.00
2022-07-31T02:21:51.019Z,100.00
2022-07-31T02:24:17.789Z,100.00
2022-07-31T02:26:45.081Z,100.00
2022-07-31T02:29:19.887Z,100.00
2022-07-31T02:32:02.856Z,100.00
2022-07-31T02:34:32.533Z,100.00
2022-07-31T02:37:00.860Z,100.00
2022-07-31T02:39:30.622Z,100.00
2022-07-31T02:42:01.715Z,100.00
2022-07-31T02:44:31.877Z,100.00
2022-07-31T02:47:02.497Z,100.00
2022-07-31T02:49:30.278Z,100.00
2022-07-31T02:51:57.205Z,100.00
2022-07-31T02:54:26.491Z,100.00
2022-07-31T02:56:53.769Z,100.00
2022-07-31T02:59:22.279Z,100.00
2022-07-31T03:01:58.936Z,100.00
2022-07-31T03:04:26.971Z,100.00
2022-07-31T03:06:54.297Z,100.00
2022-07-31T03:09:21.153Z,100.00
2022-07-31T03:11:52.751Z,100.00
2022-07-31T03:14:20.768Z,100.00
2022-07-31T03:16:48.826Z,100.00
2022-07-31T03:19:16.112Z,100.00
2022-07-31T03:21:43.471Z,100.00
2022-07-31T03:24:12.003Z,100.00
2022-07-31T03:26:38.849Z,100.00
2022-07-31T03:29:05.715Z,100.00
2022-07-31T03:31:52.497Z,100.00
2022-07-31T03:34:19.279Z,100.00
2022-07-31T03:36:46.563Z,100.00
2022-07-31T03:39:13.385Z,100.00
2022-07-31T03:41:45.033Z,100.00
2022-07-31T03:44:12.249Z,100.00
2022-07-31T03:46:39.087Z,100.00
2022-07-31T03:49:07.051Z,100.00
2022-07-31T03:51:34.451Z,100.00
2022-07-31T03:54:01.379Z,100.00
2022-07-31T03:56:46.949Z,100.00
2022-07-31T03:59:17.271Z,100.00
2022-07-31T04:01:57.838Z,100.00
2022-07-31T04:05:09.632Z,100.00
2022-07-31T04:07:38.451Z,100.00
2022-07-31T04:10:05.652Z,100.00
2022-07-31T04:12:33.116Z,100.00
2022-07-31T04:14:59.897Z,100.00
2022-07-31T04:17:26.911Z,100.00
2022-07-31T04:19:57.605Z,100.00
2022-07-31T04:22:24.565Z,100.00
2022-07-31T04:24:51.340Z,100.00
2022-07-31T04:27:48.696Z,100.00
2022-07-31T04:30:16.827Z,100.00
2022-07-31T04:32:44.494Z,100.00
2022-07-31T04:35:13.790Z,100.00
2022-07-31T04:37:43.222Z,100.00
2022-07-31T04:40:16.018Z,100.00
2022-07-31T04:42:42.883Z,100.00
2022-07-31T04:45:09.961Z,100.00
2022-07-31T04:47:38.198Z,100.00
2022-07-31T04:50:05.573Z,100.00
2022-07-31T04:52:32.871Z,100.00
2022-07-31T04:55:05.800Z,100.00
2022-07-31T04:57:32.715Z,100.00
2022-07-31T05:00:01.291Z,100.00
2022-07-31T05:02:31.979Z,100.00
2022-07-31T05:04:58.921Z,100.00
2022-07-31T05:07:39.190Z,100.00
2022-07-31T05:10:33.661Z,100.00
2022-07-31T05:13:00.519Z,100.00
2022-07-31T05:15:27.408Z,100.00
2022-07-31T05:17:56.128Z,100.00
2022-07-31T05:20:41.966Z,100.00
2022-07-31T05:23:34.899Z,100.00
2022-07-31T05:26:08.348Z,100.00
2022-07-31T05:28:42.253Z,100.00
2022-07-31T05:31:10.169Z,100.00
2022-07-31T05:33:37.729Z,100.00
2022-07-31T05:36:04.963Z,100.00
2022-07-31T05:38:31.950Z,100.00
2022-07-31T05:41:17.295Z,100.00
2022-07-31T05:44:04.811Z,100.00
2022-07-31T05:46:41.327Z,100.00
2022-07-31T05:49:08.222Z,100.00
2022-07-31T05:51:35.050Z,100.00
2022-07-31T05:54:02.030Z,100.00
2022-07-31T05:56:47.428Z,100.00
2022-07-31T05:59:16.863Z,100.00
2022-07-31T06:01:43.662Z,100.00
2022-07-31T06:04:10.690Z,100.00
2022-07-31T06:06:41.344Z,100.00
2022-07-31T06:09:08.310Z,100.00
2022-07-31T06:11:38.047Z,100.00
2022-07-31T06:14:04.917Z,100.00
2022-07-31T06:16:54.743Z,100.00
2022-07-31T06:19:24.688Z,100.00
2022-07-31T06:21:54.115Z,100.00
2022-07-31T06:24:22.314Z,100.00
2022-07-31T06:26:57.237Z,100.00
2022-07-31T06:29:42.066Z,100.00
2022-07-31T06:32:10.403Z,100.00
2022-07-31T06:34:37.766Z,100.00
2022-07-31T06:37:05.291Z,100.00
2022-07-31T06:39:54.426Z,100.00
2022-07-31T06:42:37.363Z,100.00
2022-07-31T06:45:04.714Z,100.00
2022-07-31T06:47:57.349Z,100.00
2022-07-31T06:50:32.722Z,100.00
2022-07-31T06:53:19.843Z,100.00
2022-07-31T06:55:46.743Z,100.00
2022-07-31T06:58:13.442Z,100.00
2022-07-31T07:00:40.188Z,100.00
2022-07-31T07:03:08.950Z,100.00
2022-07-31T07:05:38.647Z,100.00
2022-07-31T07:08:06.488Z,100.00
2022-07-31T07:10:33.917Z,100.00
2022-07-31T07:13:00.659Z,100.00
2022-07-31T07:15:31.732Z,100.00
2022-07-31T07:17:58.435Z,100.00
2022-07-31T07:20:39.307Z,100.00
2022-07-31T07:23:06.119Z,100.00
2022-07-31T07:25:42.360Z,100.00
2022-07-31T07:28:15.215Z,100.00
2022-07-31T07:30:57.747Z,100.00
2022-07-31T07:33:40.731Z,100.00
2022-07-31T07:36:22.338Z,100.00
2022-07-31T07:38:55.414Z,100.00
2022-07-31T07:41:33.409Z,100.00
2022-07-31T07:44:10.486Z,100.00
2022-07-31T07:46:41.192Z,100.00
2022-07-31T07:49:15.194Z,100.00
2022-07-31T07:51:59.193Z,100.00
2022-07-31T07:54:52.948Z,100.00
2022-07-31T07:57:38.739Z,100.00
2022-07-31T08:00:08.331Z,100.00
2022-07-31T08:05:41.039Z,99.24
2022-07-31T08:08:21.233Z,100.00
2022-07-31T08:11:23.879Z,100.00
2022-07-31T08:14:03.716Z,98.91
2022-07-31T08:16:32.652Z,100.00
2022-07-31T08:19:03.817Z,100.00
2022-07-31T08:21:31.984Z,100.00
2022-07-31T08:23:59.308Z,100.00
2022-07-31T08:26:27.455Z,100.00
2022-07-31T08:28:56.564Z,100.00
2022-07-31T08:31:26.702Z,100.00
2022-07-31T08:34:31.801Z,99.33
2022-07-31T08:37:50.906Z,100.00
2022-07-31T08:39:54.290Z,99.05
2022-07-31T08:42:32.583Z,96.37
2022-07-31T08:45:00.011Z,90.60
2022-07-31T08:47:33.307Z,92.97
2022-07-31T08:50:10.563Z,91.70
2022-07-31T08:52:43.591Z,89.53
2022-07-31T08:55:57.137Z,85.62
2022-07-31T08:58:28.969Z,86.03
2022-07-31T09:00:58.060Z,81.89
2022-07-31T09:03:25.429Z,79.72
2022-07-31T09:05:59.541Z,82.69
2022-07-31T09:08:26.386Z,83.62
2022-07-31T09:14:50.041Z,78.25
2022-07-31T09:17:34.526Z,82.40
2022-07-31T09:20:02.601Z,84.07
2022-07-31T09:22:37.142Z,87.23
2022-07-31T09:25:13.587Z,81.81
2022-07-31T09:27:46.231Z,82.84
2022-07-31T09:30:19.195Z,80.66
2022-07-31T09:33:20.305Z,82.12
2022-07-31T09:36:19.058Z,80.83
2022-07-31T09:38:54.190Z,85.01
2022-07-31T09:41:56.217Z,81.50
2022-07-31T09:44:56.351Z,80.07
2022-07-31T09:47:30.652Z,81.73
2022-07-31T09:50:09.336Z,81.03
2022-07-31T09:52:36.472Z,79.82
2022-07-31T09:55:16.426Z,76.56
2022-07-31T09:57:54.649Z,77.80
2022-07-31T10:00:22.370Z,76.05
2022-07-31T10:02:57.412Z,76.53
2022-07-31T10:05:28.345Z,79.14
2022-07-31T10:08:01.528Z,78.83
2022-07-31T10:11:00.221Z,81.85
2022-07-31T10:13:37.332Z,78.77
2022-07-31T10:16:08.033Z,76.86
2022-07-31T10:19:11.652Z,77.14
2022-07-31T10:22:07.414Z,76.14
2022-07-31T10:24:48.601Z,79.87
2022-07-31T10:27:27.681Z,76.42
2022-07-31T10:30:10.725Z,73.65
2022-07-31T10:32:46.730Z,78.96
2022-07-31T10:35:26.661Z,79.17
2022-07-31T10:38:39.589Z,77.63
2022-07-31T10:41:41.197Z,73.40
2022-07-31T10:44:35.500Z,72.96
2022-07-31T10:47:23.990Z,76.27
2022-07-31T10:50:30.832Z,75.10
2022-07-31T10:53:09.096Z,78.35
2022-07-31T10:56:13.550Z,75.01
2022-07-31T10:58:59.276Z,74.46
2022-07-31T11:02:08.090Z,77.70
2022-07-31T11:04:41.323Z,79.23
2022-07-31T11:07:36.346Z,78.99
2022-07-31T11:10:14.276Z,75.70
2022-07-31T11:13:17.739Z,78.63
2022-07-31T11:16:17.959Z,79.45
2022-07-31T11:19:15.794Z,75.53
2022-07-31T11:21:45.092Z,75.01
2022-07-31T11:24:16.748Z,75.17
2022-07-31T11:26:55.555Z,77.42
2022-07-31T11:30:00.626Z,78.32
2022-07-31T11:32:25.875Z,73.85
2022-07-31T11:34:55.975Z,78.29
2022-07-31T11:37:56.707Z,77.06
2022-07-31T11:40:29.443Z,76.01
2022-07-31T11:43:25.335Z,78.17
2022-07-31T11:45:55.124Z,79.18
2022-07-31T11:48:27.937Z,78.64
2022-07-31T11:51:20.459Z,80.45
2022-07-31T11:53:56.965Z,79.29
2022-07-31T11:56:26.976Z,82.77
2022-07-31T11:58:57.211Z,84.02
2022-07-31T12:01:32.794Z,86.98
2022-07-31T12:04:09.561Z,87.95
2022-07-31T12:07:34.225Z,88.86
2022-07-31T12:13:53.392Z,84.30
2022-07-31T12:16:29.982Z,86.23
2022-07-31T12:19:08.617Z,89.76
2022-07-31T12:21:38.318Z,87.28
2022-07-31T12:24:15.993Z,82.78
2022-07-31T12:26:54.751Z,86.03
2022-07-31T12:29:35.653Z,84.72
2022-07-31T12:32:04.726Z,80.00
2022-07-31T12:34:42.711Z,79.36
2022-07-31T12:37:16.868Z,80.06
2022-07-31T12:39:53.870Z,83.02
2022-07-31T12:42:30.254Z,84.61
2022-07-31T12:45:00.723Z,81.77
2022-07-31T12:47:32.689Z,84.16
2022-07-31T12:50:00.757Z,81.52
2022-07-31T12:52:31.000Z,82.10
2022-07-31T12:54:58.476Z,83.58
2022-07-31T12:57:25.288Z,82.15
2022-07-31T12:59:51.987Z,81.08
2022-07-31T13:02:18.831Z,83.17
2022-07-31T13:04:45.744Z,85.00
2022-07-31T13:07:12.571Z,86.75
2022-07-31T13:09:39.396Z,85.83
2022-07-31T13:12:06.645Z,85.81
2022-07-31T13:14:34.758Z,84.42
2022-07-31T13:17:02.150Z,86.94
2022-07-31T13:19:29.637Z,87.10
2022-07-31T13:21:56.624Z,86.73
2022-07-31T13:24:24.128Z,88.70
2022-07-31T13:26:50.867Z,88.70
2022-07-31T13:29:17.792Z,91.36
2022-07-31T13:31:44.884Z,90.15
2022-07-31T13:34:11.999Z,88.67
2022-07-31T13:36:39.950Z,87.39
2022-07-31T13:39:10.029Z,88.74
2022-07-31T13:41:39.227Z,92.75
2022-07-31T13:44:07.269Z,93.28
2022-07-31T13:46:34.396Z,92.91
2022-07-31T13:49:02.696Z,93.45
2022-07-31T13:51:30.155Z,88.84
2022-07-31T13:53:57.165Z,88.95
2022-07-31T13:56:41.229Z,87.00
2022-07-31T13:59:11.908Z,87.33
2022-07-31T14:02:04.361Z,85.02
2022-07-31T14:04:32.941Z,83.12
2022-07-31T14:07:07.024Z,86.11
2022-07-31T14:09:35.029Z,84.78
2022-07-31T14:12:04.356Z,86.14
2022-07-31T14:14:32.251Z,88.04
2022-07-31T14:16:59.157Z,88.10
2022-07-31T14:19:26.029Z,91.88
2022-07-31T14:21:56.854Z,88.99
2022-07-31T14:24:25.470Z,90.62
2022-07-31T14:26:52.420Z,91.42
2022-07-31T14:29:21.915Z,89.58
2022-07-31T14:31:48.890Z,88.41
2022-07-31T14:34:15.594Z,88.52
2022-07-31T14:36:42.791Z,88.20
2022-07-31T14:39:09.549Z,88.33
2022-07-31T14:41:36.255Z,89.48
2022-07-31T14:44:03.415Z,88.60
2022-07-31T14:46:30.317Z,87.78
2022-07-31T14:48:58.555Z,90.18
2022-07-31T14:51:25.618Z,89.55
2022-07-31T14:53:52.862Z,85.85
2022-07-31T14:56:34.777Z,85.87
2022-07-31T14:59:06.611Z,88.12
2022-07-31T15:01:33.577Z,83.28
2022-07-31T15:04:00.487Z,81.45
2022-07-31T15:06:40.804Z,87.81
2022-07-31T15:09:16.242Z,86.71
2022-07-31T15:11:59.128Z,84.64
2022-07-31T15:14:29.391Z,84.71
2022-07-31T15:16:57.089Z,87.52
2022-07-31T15:19:23.855Z,87.56
2022-07-31T15:22:11.291Z,91.20
2022-07-31T15:24:40.131Z,85.28
2022-07-31T15:27:09.391Z,90.13
2022-07-31T15:30:05.642Z,88.39
2022-07-31T15:32:22.962Z,86.02
2022-07-31T15:34:50.119Z,87.16
2022-07-31T15:37:19.969Z,85.75
2022-07-31T15:40:01.386Z,83.50
2022-07-31T15:42:33.045Z,85.83
2022-07-31T15:45:00.471Z,88.14
2022-07-31T15:47:27.356Z,86.94
2022-07-31T15:49:54.340Z,90.59
2022-07-31T15:52:21.326Z,90.33
2022-07-31T15:54:51.832Z,90.80
2022-07-31T15:57:24.076Z,92.47
2022-07-31T15:59:54.416Z,88.33
2022-07-31T16:02:22.778Z,89.92
2022-07-31T16:05:11.173Z,87.65
2022-07-31T16:08:28.477Z,90.51
2022-07-31T16:11:04.385Z,87.90
2022-07-31T16:13:36.338Z,86.87
2022-07-31T16:16:07.629Z,87.28
2022-07-31T16:18:34.549Z,86.82
2022-07-31T16:21:02.606Z,86.94
2022-07-31T16:23:29.429Z,85.31
2022-07-31T16:25:56.306Z,88.05
2022-07-31T16:28:23.176Z,89.20
2022-07-31T16:30:50.840Z,91.24
2022-07-31T16:33:19.237Z,96.04
2022-07-31T16:35:49.286Z,91.86
2022-07-31T16:38:18.893Z,88.38
2022-07-31T16:40:56.473Z,88.97
2022-07-31T16:43:48.618Z,88.35
2022-07-31T16:46:10.785Z,90.34
2022-07-31T16:48:38.891Z,92.72
2022-07-31T16:51:06.681Z,90.17
2022-07-31T16:54:10.690Z,91.21
2022-07-31T16:56:20.382Z,90.37
2022-07-31T16:58:51.336Z,91.45
2022-07-31T17:01:57.855Z,92.63
2022-07-31T17:04:09.786Z,86.82
2022-07-31T17:06:38.760Z,86.23
2022-07-31T17:09:16.189Z,90.88
2022-07-31T17:11:51.835Z,92.32
2022-07-31T17:14:22.491Z,91.28
2022-07-31T17:16:50.380Z,91.28
2022-07-31T17:19:36.175Z,88.43
2022-07-31T17:22:07.554Z,93.77
2022-07-31T17:24:40.106Z,88.29
2022-07-31T17:27:08.797Z,91.20
2022-07-31T17:29:42.727Z,91.83
2022-07-31T17:32:12.214Z,88.93
2022-07-31T17:34:45.438Z,93.30
2022-07-31T17:37:21.021Z,87.90
2022-07-31T17:39:48.529Z,87.53
2022-07-31T17:42:23.596Z,89.27
2022-07-31T17:44:54.619Z,85.98
2022-07-31T17:47:26.821Z,84.70
2022-07-31T17:49:54.132Z,87.03
2022-07-31T17:52:21.027Z,88.59
2022-07-31T17:54:48.369Z,88.01
2022-07-31T17:57:15.157Z,87.63
2022-07-31T17:59:46.317Z,86.92
2022-07-31T18:02:13.882Z,88.53
2022-07-31T18:04:46.407Z,86.71
2022-07-31T18:07:18.484Z,90.59
2022-07-31T18:09:48.116Z,86.97
2022-07-31T18:12:17.551Z,93.32
2022-07-31T18:14:46.966Z,92.08
2022-07-31T18:17:14.388Z,93.26
2022-07-31T18:19:45.251Z,96.21
2022-07-31T18:22:14.669Z,95.31
2022-07-31T18:24:44.622Z,92.56
2022-07-31T18:27:13.154Z,92.97
2022-07-31T18:29:41.742Z,97.89
2022-07-31T18:32:23.198Z,93.39
2022-07-31T18:34:51.520Z,99.04
2022-07-31T18:37:22.151Z,95.22
2022-07-31T18:39:52.410Z,98.12
2022-07-31T18:42:20.505Z,100.00
2022-07-31T18:44:49.077Z,100.00
2022-07-31T18:47:19.602Z,100.00
2022-07-31T18:51:00.415Z,98.21
2022-07-31T18:52:34.812Z,97.71
2022-07-31T18:55:01.811Z,97.51
2022-07-31T18:57:31.119Z,98.55
2022-07-31T18:59:58.287Z,95.19
2022-07-31T19:02:25.200Z,96.95
2022-07-31T19:04:52.544Z,100.00
2022-07-31T19:07:20.811Z,100.00
2022-07-31T19:09:48.014Z,100.00
2022-07-31T19:12:19.669Z,100.00
2022-07-31T19:14:50.764Z,100.00
2022-07-31T19:17:21.354Z,100.00
2022-07-31T19:19:55.214Z,100.00
2022-07-31T19:22:28.506Z,100.00
2022-07-31T19:24:55.444Z,100.00
2022-07-31T19:27:39.912Z,100.00
2022-07-31T19:30:16.626Z,100.00
2022-07-31T19:32:46.786Z,100.00
2022-07-31T19:35:18.796Z,100.00
2022-07-31T19:37:58.063Z,100.00
2022-07-31T19:40:26.071Z,100.00
2022-07-31T19:43:00.295Z,100.00
2022-07-31T19:45:32.378Z,100.00
2022-07-31T19:47:59.404Z,100.00
2022-07-31T19:50:27.147Z,100.00
2022-07-31T19:52:54.155Z,100.00
2022-07-31T19:55:21.320Z,100.00
2022-07-31T19:57:48.231Z,100.00
2022-07-31T20:00:18.713Z,100.00
2022-07-31T20:02:50.586Z,100.00
2022-07-31T20:05:19.137Z,100.00
2022-07-31T20:07:51.335Z,100.00
2022-07-31T20:10:23.392Z,100.00
2022-07-31T20:12:52.162Z,100.00
2022-07-31T20:15:25.644Z,100.00
2022-07-31T20:18:02.113Z,100.00
2022-07-31T20:20:29.262Z,100.00
2022-07-31T20:22:56.334Z,100.00
2022-07-31T20:25:24.527Z,100.00
2022-07-31T20:27:55.624Z,100.00
2022-07-31T20:30:23.460Z,100.00
2022-07-31T20:32:54.217Z,100.00
2022-07-31T20:35:29.021Z,100.00
2022-07-31T20:38:15.975Z,100.00
2022-07-31T20:40:53.577Z,100.00
2022-07-31T20:43:23.689Z,100.00
2022-07-31T20:45:51.630Z,100.00
2022-07-31T20:48:26.509Z,100.00
2022-07-31T20:50:53.525Z,100.00
2022-07-31T20:53:22.277Z,100.00
2022-07-31T20:55:50.666Z,100.00
2022-07-31T20:58:22.124Z,100.00
2022-07-31T21:00:51.468Z,100.00
2022-07-31T21:06:29.782Z,100.00
2022-07-31T21:08:57.188Z,100.00
2022-07-31T21:11:31.656Z,100.00
2022-07-31T21:14:00.898Z,100.00
2022-07-31T21:16:31.483Z,100.00
2022-07-31T21:18:58.938Z,100.00
2022-07-31T21:21:26.780Z,100.00
2022-07-31T21:23:56.227Z,100.00
2022-07-31T21:26:28.504Z,100.00
2022-07-31T21:28:57.796Z,100.00
2022-07-31T21:31:25.608Z,100.00
2022-07-31T21:34:06.592Z,100.00
2022-07-31T21:36:33.957Z,100.00
2022-07-31T21:39:04.477Z,100.00
2022-07-31T21:41:31.824Z,100.00
2022-07-31T21:44:02.195Z,100.00
2022-07-31T21:46:29.705Z,100.00
2022-07-31T21:48:56.829Z,100.00
2022-07-31T21:51:24.316Z,100.00
2022-07-31T21:53:51.152Z,100.00
2022-07-31T21:56:22.580Z,100.00
2022-07-31T21:58:49.674Z,100.00
2022-07-31T22:01:16.635Z,100.00
2022-07-31T22:03:43.423Z,100.00
2022-07-31T22:06:29.007Z,100.00
2022-07-31T22:08:55.823Z,100.00
2022-07-31T22:11:23.277Z,100.00
2022-07-31T22:13:52.931Z,100.00
2022-07-31T22:16:19.706Z,100.00
2022-07-31T22:18:52.869Z,100.00
2022-07-31T22:21:20.203Z,100.00
2022-07-31T22:23:47.174Z,100.00
2022-07-31T22:26:14.906Z,100.00
2022-07-31T22:28:41.758Z,100.00
2022-07-31T22:31:10.465Z,100.00
2022-07-31T22:33:37.316Z,100.00
2022-07-31T22:36:07.152Z,100.00
2022-07-31T22:38:34.818Z,100.00
2022-07-31T22:41:02.039Z,100.00
2022-07-31T22:44:11.626Z,100.00
2022-07-31T22:46:16.577Z,100.00
2022-07-31T22:48:45.705Z,100.00
2022-07-31T22:51:14.490Z,100.00
2022-07-31T22:53:43.326Z,100.00
2022-07-31T22:56:10.101Z,100.00
2022-07-31T22:58:36.963Z,100.00
2022-07-31T23:01:04.431Z,100.00
2022-07-31T23:03:31.708Z,100.00
2022-07-31T23:06:02.441Z,100.00
2022-07-31T23:08:45.201Z,100.00
2022-07-31T23:11:11.971Z,100.00
2022-07-31T23:13:39.616Z,100.00
2022-07-31T23:16:06.459Z,100.00
2022-07-31T23:18:33.191Z,100.00
2022-07-31T23:21:00.067Z,100.00
2022-07-31T23:23:26.777Z,100.00
2022-07-31T23:25:53.619Z,100.00
2022-07-31T23:28:20.357Z,100.00
2022-07-31T23:30:47.205Z,100.00
2022-07-31T23:33:16.439Z,100.00
2022-07-31T23:35:44.081Z,100.00
2022-07-31T23:38:10.955Z,100.00
2022-07-31T23:40:37.830Z,100.00
2022-07-31T23:43:04.628Z,100.00
2022-07-31T23:45:31.377Z,100.00
2022-07-31T23:47:59.146Z,100.00
2022-07-31T23:50:26.852Z,100.00
2022-07-31T23:52:53.704Z,100.00
2022-07-31T23:55:20.604Z,100.00
2022-07-31T23:57:47.677Z,100.00
